Time;durP1;ratioP1;P1;durP2;ratioP2;P2;SDS_P1;SDS_P2;PMS_P1;PMS_P2;Temp;Humidity;BMP_temperature;BMP_pressure;BME280_temperature;BME280_humidity;BME280_pressure;Samples;Min_cycle;Max_cycle;Signal;HPM_P1;HPM_P2
2022/12/05 00:01:31;;;;;;;;;13.75;12.25;;;;;0.63;94.52;98895.38;4910399;28;102363;-71
2022/12/05 00:03:59;;;;;;;;;17.00;13.33;;;;;0.60;94.58;98890.34;4907922;28;102473;-71
2022/12/05 00:06:28;;;;;;;;;11.50;10.00;;;;;0.60;94.53;98890.34;4909462;28;104080;-72
2022/12/05 00:08:55;;;;;;;;;9.00;7.00;;;;;0.67;94.64;98894.19;4908400;28;104019;-71
2022/12/05 00:11:34;;;;;;;;;12.00;9.75;;;;;0.64;94.49;98896.22;4908273;28;102205;-72
2022/12/05 00:14:02;;;;;;;;;10.00;5.67;;;;;0.57;94.30;98887.94;4908930;28;102237;-71
2022/12/05 00:16:31;;;;;;;;;15.75;12.25;;;;;0.51;94.72;98885.81;4910191;28;102308;-70
2022/12/05 00:19:00;;;;;;;;;15.75;9.00;;;;;0.55;95.02;98881.06;4909289;28;104167;-71
2022/12/05 00:21:30;;;;;;;;;14.75;11.50;;;;;0.53;94.44;98877.69;4908490;28;102155;-71
2022/12/05 00:23:58;;;;;;;;;11.50;9.25;;;;;0.52;94.64;98876.00;4901147;28;102467;-71
2022/12/05 00:26:27;;;;;;;;;16.00;12.00;;;;;0.50;94.48;98875.28;4910318;28;102284;-71
2022/12/05 00:28:55;;;;;;;;;8.50;8.00;;;;;0.59;94.71;98874.50;4907135;28;103607;-71
2022/12/05 00:31:24;;;;;;;;;12.00;9.25;;;;;0.55;94.02;98871.25;4909839;28;102448;-71
2022/12/05 00:33:52;;;;;;;;;12.75;8.75;;;;;0.45;94.48;98865.06;4908386;28;102370;-71
2022/12/05 00:36:24;;;;;;;;;10.50;8.75;;;;;0.61;94.29;98877.88;4905086;28;102359;-71
2022/12/05 00:38:52;;;;;;;;;10.25;9.00;;;;;0.57;94.06;98871.97;4909705;28;104257;-71
2022/12/05 00:41:24;;;;;;;;;13.00;11.00;;;;;0.52;94.17;98870.69;4907292;28;102289;-71
2022/12/05 00:43:52;;;;;;;;;10.00;8.00;;;;;0.64;94.36;98870.47;4904896;28;101906;-71
2022/12/05 00:46:21;;;;;;;;;9.50;5.75;;;;;0.70;93.70;98875.28;4905104;28;102106;-71
2022/12/05 00:48:51;;;;;;;;;11.00;8.00;;;;;0.69;93.68;98884.22;4907481;28;104123;-71
2022/12/05 00:51:21;;;;;;;;;12.25;9.50;;;;;0.59;94.25;98872.69;4907525;28;102066;-70
2022/12/05 00:53:48;;;;;;;;;14.25;12.00;;;;;0.59;94.66;98870.03;4907079;28;102382;-71
2022/12/05 00:56:19;;;;;;;;;15.75;11.50;;;;;0.58;93.79;98863.03;4910822;28;102300;-71
2022/12/05 00:58:47;;;;;;;;;14.25;12.00;;;;;0.55;93.63;98859.78;4904568;28;103703;-71
2022/12/05 01:01:21;;;;;;;;;12.50;10.25;;;;;0.52;94.23;98855.56;4905217;28;102184;-71
2022/12/05 01:03:52;;;;;;;;;16.67;14.33;;;;;0.49;94.83;98849.69;4909754;28;102417;-71
2022/12/05 01:06:20;;;;;;;;;13.25;10.50;;;;;0.55;94.38;98854.44;4891581;28;102486;-71
2022/12/05 01:08:47;;;;;;;;;8.50;5.75;;;;;0.61;94.38;98865.41;4907992;28;103943;-71
2022/12/05 01:11:17;;;;;;;;;4.00;2.50;;;;;0.71;94.02;98865.47;4907999;28;101936;-70
2022/12/05 01:13:44;;;;;;;;;4.50;3.00;;;;;0.68;93.39;98844.44;4908851;28;102030;-71
2022/12/05 01:16:33;;;;;;;;;9.00;7.50;;;;;0.66;93.30;98852.56;4904580;28;102349;-69
2022/12/05 01:19:06;;;;;;;;;11.50;8.75;;;;;0.69;93.98;98860.28;4907276;28;104205;-71
2022/12/05 01:21:33;;;;;;;;;6.50;5.00;;;;;0.80;94.04;98856.69;4908280;28;102500;-71
2022/12/05 01:24:01;;;;;;;;;8.75;5.00;;;;;0.78;92.94;98850.66;4911849;28;101888;-71
2022/12/05 01:26:28;;;;;;;;;5.50;4.75;;;;;0.78;93.25;98859.47;4912627;28;102092;-71
2022/12/05 01:28:55;;;;;;;;;8.75;5.00;;;;;0.80;92.96;98854.88;4895043;28;104051;-71
2022/12/05 01:31:28;;;;;;;;;12.00;9.25;;;;;0.67;92.84;98846.28;4908832;28;102458;-71
2022/12/05 01:33:58;;;;;;;;;9.25;8.25;;;;;0.61;93.12;98844.13;4908222;28;102473;-71
2022/12/05 01:36:26;;;;;;;;;15.75;11.75;;;;;0.56;93.75;98830.38;4895687;28;102377;-72
2022/12/05 01:38:54;;;;;;;;;15.50;8.25;;;;;0.69;94.13;98839.00;4911717;28;103126;-71
2022/12/05 01:41:26;;;;;;;;;9.25;8.25;;;;;0.65;93.16;98829.59;4906340;28;102935;-71
2022/12/05 01:44:11;;;;;;;;;13.50;13.00;;;;;0.61;93.66;98833.50;4903240;28;102242;-71
2022/12/05 01:46:43;;;;;;;;;9.50;8.00;;;;;0.69;93.87;98833.66;4912712;28;102229;-70
2022/12/05 01:49:19;;;;;;;;;9.00;4.00;;;;;0.80;93.14;98848.72;4910282;28;108744;-71
2022/12/05 01:51:50;;;;;;;;;7.25;5.50;;;;;0.77;92.88;98839.16;4909306;28;102391;-71
2022/12/05 01:54:19;;;;;;;;;6.00;5.00;;;;;0.68;93.31;98834.63;4910179;28;102137;-70
2022/12/05 01:56:55;;;;;;;;;8.75;6.50;;;;;0.72;93.37;98846.69;4896015;28;102336;-70
2022/12/05 01:59:26;;;;;;;;;8.25;8.00;;;;;0.70;93.14;98839.84;4913756;28;103981;-70
2022/12/05 02:01:53;;;;;;;;;8.00;7.50;;;;;0.68;93.63;98834.63;4906339;28;102578;-70
2022/12/05 02:04:20;;;;;;;;;16.75;11.50;;;;;0.61;93.75;98827.31;4905765;28;102099;-70
2022/12/05 02:06:56;;;;;;;;;17.00;12.67;;;;;0.51;94.70;98813.97;4912379;28;102536;-70
2022/12/05 02:09:41;;;;;;;;;21.33;16.00;;;;;0.43;94.92;98812.00;4896959;28;103570;-70
2022/12/05 02:12:35;;;;;;;;;17.67;13.00;;;;;0.52;94.75;98821.00;4911541;28;102267;-71
2022/12/05 02:15:23;;;;;;;;;9.25;9.00;;;;;0.64;94.77;98822.56;4911483;28;102102;-71
2022/12/05 02:18:28;;;;;;;;;10.75;8.00;;;;;0.68;93.94;98833.78;4912786;28;102235;-71
2022/12/05 02:21:50;;;;;;;;;7.00;6.50;;;;;0.70;92.91;98842.50;4911081;28;108490;-71
2022/12/05 02:25:11;;;;;;;;;8.75;7.50;;;;;0.63;93.23;98836.84;4909694;28;102571;-71
2022/12/05 02:28:22;;;;;;;;;8.50;6.00;;;;;0.68;93.30;98847.09;4911638;28;102427;-71
2022/12/05 02:30:56;;;;;;;;;8.00;5.50;;;;;0.66;93.87;98843.75;4873174;28;101941;-71
2022/12/05 02:33:58;;;;;;;;;14.25;9.75;;;;;0.53;93.48;98835.97;4910667;28;104003;-70
2022/12/05 02:36:38;;;;;;;;;16.00;12.75;;;;;0.55;93.95;98834.00;4911056;28;102360;-71
2022/12/05 02:39:34;;;;;;;;;12.00;8.50;;;;;0.62;94.03;98835.19;4906120;28;103859;-71
2022/12/05 02:42:14;;;;;;;;;8.25;5.25;;;;;0.65;93.26;98837.56;4913315;28;102040;-70
2022/12/05 02:45:00;;;;;;;;;8.50;6.50;;;;;0.60;93.57;98831.81;4908380;28;108686;-71
2022/12/05 02:47:32;;;;;;;;;5.50;5.00;;;;;0.74;93.55;98836.78;4912113;28;102339;-71
2022/12/05 02:50:00;;;;;;;;;6.75;5.50;;;;;0.70;93.25;98847.81;4911523;28;102133;-71
2022/12/05 02:52:29;;;;;;;;;9.75;9.50;;;;;0.68;93.08;98839.97;4914440;28;102167;-71
2022/12/05 02:54:57;;;;;;;;;5.00;4.00;;;;;0.73;92.87;98843.06;4913429;28;105228;-71
2022/12/05 02:57:24;;;;;;;;;4.00;4.00;;;;;0.69;92.79;98831.00;4903363;28;102384;-71
2022/12/05 02:59:51;;;;;;;;;4.50;3.75;;;;;0.76;92.71;98837.50;4914235;28;102219;-70
2022/12/05 03:02:38;;;;;;;;;4.75;4.00;;;;;0.70;92.69;98843.34;4912686;28;102154;-71
2022/12/05 03:05:20;;;;;;;;;3.00;3.00;;;;;0.73;92.46;98836.91;4911093;28;111204;-70
2022/12/05 03:07:50;;;;;;;;;5.00;4.00;;;;;0.71;92.50;98834.38;4922146;28;101941;-71
2022/12/05 03:10:21;;;;;;;;;4.00;2.50;;;;;0.71;91.71;98834.38;4913653;28;103328;-71
2022/12/05 03:12:53;;;;;;;;;5.75;4.00;;;;;0.72;92.53;98838.72;4912617;28;102286;-71
2022/12/05 03:15:27;;;;;;;;;4.00;2.00;;;;;0.76;92.26;98842.81;4904065;28;103651;-71
2022/12/05 03:18:17;;;;;;;;;8.50;5.25;;;;;0.62;92.32;98843.16;4913293;28;102470;-70
2022/12/05 03:21:04;;;;;;;;;9.00;9.00;;;;;0.54;92.96;98842.16;4903078;28;102272;-70
2022/12/05 03:23:38;;;;;;;;;8.25;7.25;;;;;0.58;92.80;98852.41;4912321;28;102357;-70
2022/12/05 03:26:56;;;;;;;;;5.50;4.50;;;;;0.59;92.90;98853.22;4912955;28;104017;-71
2022/12/05 03:29:32;;;;;;;;;12.00;9.00;;;;;0.50;93.42;98830.91;4830313;29;102517;-71
2022/12/05 03:32:22;;;;;;;;;5.50;5.00;;;;;0.60;93.38;98838.94;4912331;28;102297;-71
2022/12/05 03:34:54;;;;;;;;;6.00;4.00;;;;;0.68;92.38;98842.63;4905980;28;102355;-72
2022/12/05 03:37:50;;;;;;;;;4.25;4.00;;;;;0.73;91.99;98843.06;4913214;28;104287;-70
2022/12/05 03:40:32;;;;;;;;;4.50;4.00;;;;;0.74;92.50;98846.56;4873524;28;102107;-70
2022/12/05 03:43:02;;;;;;;;;4.00;3.50;;;;;0.72;92.44;98845.88;4913029;28;102176;-71
2022/12/05 03:45:47;;;;;;;;;10.50;9.00;;;;;0.58;93.22;98843.56;4913577;28;102146;-70
2022/12/05 03:48:37;;;;;;;;;13.00;9.00;;;;;0.64;92.72;98849.19;4909550;28;108931;-71
2022/12/05 03:51:09;;;;;;;;;9.75;8.25;;;;;0.54;93.35;98831.50;4912513;28;102729;-71
2022/12/05 03:53:43;;;;;;;;;13.25;11.00;;;;;0.53;93.62;98832.47;4881450;28;102565;-71
2022/12/05 03:56:18;;;;;;;;;12.25;7.75;;;;;0.52;93.28;98838.75;4913776;28;103861;-71
2022/12/05 03:58:52;;;;;;;;;15.50;12.00;;;;;0.48;93.65;98834.69;4907506;28;108716;-71
2022/12/05 04:01:22;;;;;;;;;16.75;13.00;;;;;0.47;94.50;98825.84;4912008;28;102175;-71
2022/12/05 04:03:56;;;;;;;;;14.25;8.50;;;;;0.60;93.61;98836.28;4912341;28;102400;-71
2022/12/05 04:06:30;;;;;;;;;4.75;4.50;;;;;0.47;93.41;98806.41;4911659;28;102359;-71
2022/12/05 04:09:03;;;;;;;;;11.75;10.00;;;;;0.42;93.21;98798.81;4912253;28;104644;-70
2022/12/05 04:11:34;;;;;;;;;9.50;8.75;;;;;0.55;93.69;98831.34;4894704;28;102550;-71
2022/12/05 04:14:08;;;;;;;;;12.00;9.25;;;;;0.50;93.60;98825.59;4890457;28;102362;-71
2022/12/05 04:17:08;;;;;;;;;14.50;12.00;;;;;0.48;94.77;98822.22;4912207;28;102126;-71
2022/12/05 04:22:27;;;;;;;;;9.50;8.00;;;;;0.62;93.93;98819.22;4897757;28;103487;-70
2022/12/05 04:28:07;;;;;;;;;6.00;6.00;;;;;0.66;93.85;98810.00;4897192;28;102409;-70
2022/12/05 04:31:01;;;;;;;;;9.75;5.25;;;;;0.63;93.76;98815.56;4908502;28;103699;-70
2022/12/05 04:33:31;;;;;;;;;6.25;5.00;;;;;0.71;93.81;98807.78;4911513;28;102940;-71
2022/12/05 04:36:27;;;;;;;;;9.50;7.50;;;;;0.61;93.69;98798.06;4909927;28;103850;-71
2022/12/05 04:39:00;;;;;;;;;8.25;8.00;;;;;0.63;94.03;98799.59;4893731;28;102398;-73
2022/12/05 04:41:33;;;;;;;;;13.67;12.00;;;;;0.50;93.91;98788.34;4911437;28;104213;-71
2022/12/05 04:44:06;;;;;;;;;13.25;11.25;;;;;0.47;94.16;98780.63;4912117;28;102246;-73
2022/12/05 04:46:34;;;;;;;;;13.50;11.50;;;;;0.49;93.87;98784.03;4913060;28;102044;-72
2022/12/05 04:49:06;;;;;;;;;17.00;10.50;;;;;0.50;94.06;98774.19;4894876;28;102030;-72
2022/12/05 04:51:35;;;;;;;;;6.00;5.00;;;;;0.59;94.22;98781.38;4911688;28;103825;-72
2022/12/05 04:54:13;;;;;;;;;5.75;4.75;;;;;0.52;93.98;98762.47;4912901;28;102422;-72
2022/12/05 04:56:43;;;;;;;;;12.00;9.00;;;;;0.55;93.07;98775.50;4912047;28;101980;-73
2022/12/05 04:59:10;;;;;;;;;4.50;2.00;;;;;0.39;92.93;98751.22;4909872;28;102858;-73
2022/12/05 05:01:47;;;;;;;;;6.25;4.25;;;;;0.54;93.05;98784.44;4908062;28;108631;-70
2022/12/05 05:04:43;;;;;;;;;7.00;3.00;;;;;0.48;93.58;98774.34;4906423;28;102056;-73
2022/12/05 05:07:12;;;;;;;;;7.50;5.00;;;;;0.44;93.61;98762.31;4910502;28;102125;-73
2022/12/05 05:09:40;;;;;;;;;6.50;6.00;;;;;0.54;93.72;98784.44;4914186;28;102201;-72
2022/12/05 05:12:07;;;;;;;;;8.00;6.00;;;;;0.51;93.83;98783.88;4910021;28;103987;-74
2022/12/05 05:14:36;;;;;;;;;11.75;8.75;;;;;0.48;94.65;98769.03;4909010;28;102065;-71
2022/12/05 05:17:03;;;;;;;;;8.00;6.00;;;;;0.51;94.32;98773.22;4909940;28;101945;-71
2022/12/05 05:19:30;;;;;;;;;6.00;5.25;;;;;0.51;93.69;98790.03;4907142;28;102287;-70
2022/12/05 05:21:57;;;;;;;;;5.75;4.50;;;;;0.50;93.08;98793.66;4910079;28;105050;-72
2022/12/05 05:24:25;;;;;;;;;6.75;5.00;;;;;0.49;93.05;98786.69;4887857;28;104275;-70
2022/12/05 05:26:52;;;;;;;;;5.00;4.00;;;;;0.48;93.87;98781.50;4882913;28;102345;-70
2022/12/05 05:29:23;;;;;;;;;4.00;2.00;;;;;0.51;92.71;98790.03;4873387;28;102778;-70
2022/12/05 05:31:50;;;;;;;;;0.75;0.75;;;;;0.57;92.64;98797.50;4889023;28;103426;-71
2022/12/05 05:34:17;;;;;;;;;1.00;1.00;;;;;0.57;92.29;98792.16;4890528;28;102319;-71
2022/12/05 05:36:44;;;;;;;;;0.75;0.75;;;;;0.53;92.75;98788.09;4894418;28;102063;-72
2022/12/05 05:39:13;;;;;;;;;5.00;4.00;;;;;0.29;92.17;98787.56;4898652;28;102440;-71
2022/12/05 05:41:41;;;;;;;;;9.75;5.25;;;;;0.28;93.54;98804.47;4894724;28;107984;-72
2022/12/05 05:44:09;;;;;;;;;3.50;2.50;;;;;0.18;93.27;98775.16;4895663;28;102793;-71
2022/12/05 05:46:36;;;;;;;;;4.00;2.00;;;;;0.25;92.67;98776.34;4895067;28;102287;-71
2022/12/05 05:49:04;;;;;;;;;3.00;2.00;;;;;0.24;92.61;98776.47;4896516;28;102505;-71
2022/12/05 05:51:31;;;;;;;;;4.00;1.00;;;;;0.24;92.84;98787.09;4892344;28;104012;-70
2022/12/05 05:53:59;;;;;;;;;5.50;4.25;;;;;0.09;92.62;98799.88;4861774;28;102342;-71
2022/12/05 05:56:27;;;;;;;;;6.00;5.00;;;;;0.02;93.88;98792.56;4878404;28;102260;-71
2022/12/05 05:59:00;;;;;;;;;4.25;3.50;;;;;0.04;93.50;98787.97;4897118;28;102553;-71
2022/12/05 06:01:28;;;;;;;;;4.00;2.00;;;;;0.07;94.00;98798.34;4891202;28;104021;-70
2022/12/05 06:03:56;;;;;;;;;7.00;3.00;;;;;-0.01;93.65;98794.53;4895686;28;102465;-71
2022/12/05 06:06:24;;;;;;;;;4.00;3.75;;;;;0.06;94.18;98800.16;4895272;28;102412;-71
2022/12/05 06:08:51;;;;;;;;;6.00;4.25;;;;;0.02;94.51;98790.75;4897411;28;102321;-72
2022/12/05 06:11:25;;;;;;;;;8.50;8.00;;;;;-0.06;94.21;98796.72;4877579;28;104270;-71
2022/12/05 06:14:01;;;;;;;;;14.33;10.33;;;;;-0.08;95.24;98790.69;4894288;28;104624;-71
2022/12/05 06:16:30;;;;;;;;;17.00;11.33;;;;;-0.15;95.21;98794.84;4896083;28;102369;-71
2022/12/05 06:18:58;;;;;;;;;12.33;11.67;;;;;-0.10;95.15;98784.69;4897864;28;102449;-71
2022/12/05 06:21:25;;;;;;;;;16.00;12.00;;;;;-0.12;95.85;98786.59;4894119;28;104044;-71
2022/12/05 06:23:53;;;;;;;;;24.00;14.33;;;;;-0.19;96.29;98787.25;4898275;28;102280;-70
2022/12/05 06:26:21;;;;;;;;;18.33;16.00;;;;;-0.17;96.86;98786.16;4892695;28;102578;-71
2022/12/05 06:28:48;;;;;;;;;27.00;20.00;;;;;-0.19;96.56;98798.75;4892514;28;102145;-70
2022/12/05 06:31:18;;;;;;;;;20.67;17.00;;;;;-0.15;96.43;98801.97;4884605;28;104016;-70
2022/12/05 06:33:45;;;;;;;;;25.67;19.33;;;;;-0.11;96.54;98798.94;4892750;28;102531;-70
2022/12/05 06:36:15;;;;;;;;;19.33;13.67;;;;;-0.06;96.70;98791.41;4887881;28;102124;-71
2022/12/05 06:38:43;;;;;;;;;16.67;13.67;;;;;-0.07;96.36;98792.38;4892219;28;102008;-70
2022/12/05 06:41:15;;;;;;;;;20.67;17.33;;;;;-0.08;96.23;98793.34;4878858;28;108773;-71
2022/12/05 06:43:42;;;;;;;;;19.33;13.67;;;;;-0.02;96.29;98802.63;4883816;28;102095;-71
2022/12/05 06:46:11;;;;;;;;;10.33;8.33;;;;;0.05;95.94;98782.50;4885790;28;102270;-72
2022/12/05 06:48:39;;;;;;;;;9.00;7.33;;;;;0.19;95.92;98807.91;4892589;28;101964;-71
2022/12/05 06:51:10;;;;;;;;;6.00;4.00;;;;;0.28;96.10;98810.63;4890432;28;106079;-72
2022/12/05 06:53:37;;;;;;;;;6.00;5.00;;;;;0.21;94.91;98790.03;4888331;28;103411;-71
2022/12/05 06:56:07;;;;;;;;;5.00;4.00;;;;;0.31;95.64;98806.88;4866800;28;101940;-71
2022/12/05 06:58:34;;;;;;;;;4.75;4.50;;;;;0.39;95.62;98801.75;4890431;28;102328;-71
2022/12/05 07:03:50;;;;;;;;;12.00;6.00;;;;;0.42;95.27;98812.13;4880455;28;102050;-71
2022/12/05 07:06:17;;;;;;;;;6.00;5.00;;;;;0.45;95.21;98806.56;4880832;28;102250;-71
2022/12/05 07:08:44;;;;;;;;;5.00;5.00;;;;;0.53;94.77;98813.84;4889382;28;102403;-72
2022/12/05 07:11:11;;;;;;;;;6.00;3.50;;;;;0.59;94.45;98814.16;4891521;28;103554;-71
2022/12/05 07:13:38;;;;;;;;;3.00;3.00;;;;;0.69;94.08;98816.84;4867853;28;102243;-71
2022/12/05 07:16:06;;;;;;;;;4.00;2.00;;;;;0.75;93.93;98824.31;4880972;28;102264;-71
2022/12/05 07:18:34;;;;;;;;;1.00;1.00;;;;;0.82;93.61;98817.47;4879310;28;102336;-71
2022/12/05 07:21:04;;;;;;;;;4.25;2.00;;;;;0.85;92.93;98822.53;4889001;28;103593;-70
2022/12/05 07:23:41;;;;;;;;;3.50;1.25;;;;;0.90;93.31;98812.34;4898225;28;101929;-72
2022/12/05 07:26:10;;;;;;;;;7.75;6.00;;;;;0.84;92.80;98813.72;4886706;28;104805;-71
2022/12/05 07:28:37;;;;;;;;;7.50;6.00;;;;;0.88;93.04;98815.13;4892194;28;102812;-72
2022/12/05 07:31:08;;;;;;;;;9.00;8.00;;;;;0.83;93.06;98817.34;4887883;28;104066;-71
2022/12/05 07:33:36;;;;;;;;;17.00;12.75;;;;;0.88;93.13;98820.44;4877895;28;102731;-72
2022/12/05 07:36:09;;;;;;;;;13.50;10.00;;;;;0.94;93.23;98824.41;4878153;28;102235;-71
2022/12/05 07:38:36;;;;;;;;;9.50;9.00;;;;;0.92;92.83;98821.00;4886785;28;102420;-71
2022/12/05 07:41:15;;;;;;;;;9.00;8.25;;;;;0.84;92.91;98803.06;4889361;28;103973;-71
2022/12/05 07:43:42;;;;;;;;;17.25;12.00;;;;;0.92;92.68;98809.50;4877740;28;102033;-71
2022/12/05 07:46:12;;;;;;;;;11.75;9.00;;;;;1.00;92.71;98807.00;4891328;28;102416;-71
2022/12/05 07:48:39;;;;;;;;;9.50;9.00;;;;;1.04;92.54;98814.59;4887843;28;102025;-71
2022/12/05 07:51:08;;;;;;;;;14.75;10.25;;;;;0.94;92.97;98819.06;4879681;28;104026;-71
2022/12/05 07:53:36;;;;;;;;;13.00;9.00;;;;;1.09;92.62;98814.19;4892484;28;103840;-71
2022/12/05 07:56:05;;;;;;;;;13.50;12.00;;;;;1.11;93.13;98809.56;4889077;28;102275;-71
2022/12/05 07:58:34;;;;;;;;;11.75;7.50;;;;;1.28;92.63;98807.09;4879861;28;103953;-71
2022/12/05 08:01:08;;;;;;;;;9.25;9.00;;;;;1.33;92.43;98812.84;4885443;28;104185;-71
2022/12/05 08:03:39;;;;;;;;;11.50;9.00;;;;;1.28;92.40;98816.91;4877013;28;102376;-71
2022/12/05 08:06:17;;;;;;;;;10.25;9.00;;;;;1.45;92.68;98828.69;4879290;28;101940;-71
2022/12/05 08:08:44;;;;;;;;;9.75;7.75;;;;;1.34;91.87;98824.34;4881079;28;102227;-70
2022/12/05 08:11:14;;;;;;;;;6.00;6.00;;;;;1.46;91.25;98812.59;4890595;28;108693;-70
2022/12/05 08:13:41;;;;;;;;;9.50;9.50;;;;;1.37;92.17;98805.41;4882081;28;102077;-70
2022/12/05 08:16:11;;;;;;;;;11.75;9.00;;;;;1.46;92.34;98815.25;4880974;28;102716;-71
2022/12/05 08:18:39;;;;;;;;;8.00;6.00;;;;;1.61;91.30;98808.53;4883563;28;101985;-72
2022/12/05 08:21:12;;;;;;;;;5.25;4.75;;;;;1.65;91.00;98803.75;4892179;28;103035;-71
2022/12/05 08:23:39;;;;;;;;;3.00;2.00;;;;;1.81;90.19;98804.03;4906779;28;103161;-72
2022/12/05 08:26:09;;;;;;;;;2.00;2.00;;;;;1.94;89.96;98811.72;4910586;28;102281;-71
2022/12/05 08:28:37;;;;;;;;;4.50;3.00;;;;;2.06;89.88;98818.63;4915085;28;102347;-71
2022/12/05 08:31:12;;;;;;;;;1.00;1.00;;;;;2.27;89.39;98813.94;4913099;28;103955;-71
2022/12/05 08:33:40;;;;;;;;;2.00;1.00;;;;;2.25;88.28;98813.25;4909396;28;102214;-71
2022/12/05 08:36:10;;;;;;;;;3.50;1.25;;;;;2.30;87.88;98820.84;4912721;28;102322;-70
2022/12/05 08:38:38;;;;;;;;;4.50;3.00;;;;;2.19;87.75;98813.81;4883952;28;102124;-71
2022/12/05 08:41:08;;;;;;;;;2.00;1.25;;;;;2.26;88.07;98814.91;4907119;28;104022;-72
2022/12/05 08:43:35;;;;;;;;;5.25;5.25;;;;;2.18;88.85;98818.31;4911297;28;102353;-71
2022/12/05 08:46:03;;;;;;;;;5.00;2.00;;;;;2.28;88.01;98823.63;4913460;28;102121;-71
2022/12/05 08:48:31;;;;;;;;;6.00;3.00;;;;;2.31;88.51;98810.00;4914348;28;102210;-72
2022/12/05 08:51:03;;;;;;;;;2.75;2.50;;;;;2.39;87.66;98818.13;4902962;28;103991;-71
2022/12/05 08:53:29;;;;;;;;;9.00;5.50;;;;;2.41;88.03;98808.16;4913699;28;102387;-71
2022/12/05 08:56:01;;;;;;;;;5.50;4.50;;;;;2.49;88.43;98794.06;4914239;28;102195;-72
2022/12/05 08:58:28;;;;;;;;;6.00;3.00;;;;;2.57;87.37;98792.34;4901814;28;102317;-72
2022/12/05 09:01:22;;;;;;;;;4.50;3.00;;;;;2.60;86.95;98808.09;4913717;28;104272;-71
2022/12/05 09:03:49;;;;;;;;;6.50;6.00;;;;;2.68;87.00;98799.34;4898327;28;102380;-72
2022/12/05 09:06:18;;;;;;;;;6.00;6.00;;;;;2.77;86.34;98809.16;4913264;28;102748;-71
2022/12/05 09:08:45;;;;;;;;;10.50;5.75;;;;;2.78;86.88;98796.66;4914658;28;101986;-72
2022/12/05 09:11:16;;;;;;;;;9.25;7.00;;;;;2.84;85.95;98810.22;4908302;28;108491;-72
2022/12/05 09:13:44;;;;;;;;;9.00;7.00;;;;;2.98;85.56;98804.41;4913807;28;102353;-70
2022/12/05 09:16:14;;;;;;;;;10.00;6.50;;;;;3.05;85.72;98791.31;4909590;28;102374;-71
2022/12/05 09:18:41;;;;;;;;;10.25;8.75;;;;;3.06;84.86;98793.00;4915060;28;102292;-71
2022/12/05 09:21:15;;;;;;;;;2.25;2.25;;;;;3.16;85.42;98801.78;4914178;28;104096;-72
2022/12/05 09:23:43;;;;;;;;;5.00;3.50;;;;;3.22;84.90;98798.53;4910537;28;102371;-72
2022/12/05 09:26:13;;;;;;;;;6.00;5.00;;;;;3.30;83.74;98803.09;4911826;28;102227;-72
2022/12/05 09:28:41;;;;;;;;;4.00;3.00;;;;;3.43;84.87;98799.06;4913496;28;102071;-72
2022/12/05 09:31:16;;;;;;;;;3.50;2.00;;;;;3.53;83.96;98799.84;4909867;28;103982;-71
2022/12/05 09:33:44;;;;;;;;;9.75;5.25;;;;;3.68;84.54;98788.63;4913427;28;102387;-70
2022/12/05 09:36:14;;;;;;;;;13.25;9.25;;;;;3.38;83.50;98771.13;4913295;28;102439;-70
2022/12/05 09:38:42;;;;;;;;;12.00;7.75;;;;;3.57;82.93;98781.66;4914113;28;102867;-71
2022/12/05 09:42:12;;;;;;;;;10.75;8.00;;;;;3.75;83.20;98787.84;4912576;28;104010;-72
2022/12/05 09:44:35;;;;;;;;;7.25;6.00;;;;;3.88;81.16;98772.25;4899849;28;102120;-72
2022/12/05 09:47:24;;;;;;;;;4.00;3.00;;;;;3.98;81.65;98773.00;4911538;28;102720;-72
2022/12/05 09:50:16;;;;;;;;;1.00;0.75;;;;;4.08;81.53;98780.09;4907457;28;102792;-71
2022/12/05 09:52:59;;;;;;;;;2.50;2.00;;;;;4.13;81.28;98770.63;4913439;28;108835;-71
2022/12/05 09:55:51;;;;;;;;;5.50;3.00;;;;;4.15;81.80;98768.63;4910583;28;102203;-71
2022/12/05 09:58:27;;;;;;;;;3.00;2.00;;;;;4.17;80.77;98766.63;4904451;28;102206;-70
2022/12/05 10:01:02;;;;;;;;;12.00;9.50;;;;;3.99;80.64;98768.50;4912650;28;102187;-70
2022/12/05 10:03:44;;;;;;;;;13.00;12.25;;;;;4.00;82.25;98762.16;4910932;28;103361;-70
2022/12/05 10:06:18;;;;;;;;;9.00;7.75;;;;;4.12;80.93;98771.63;4910755;28;102086;-71
2022/12/05 10:09:29;;;;;;;;;6.75;6.00;;;;;4.27;81.03;98762.03;4905417;28;102415;-71
2022/12/05 10:12:36;;;;;;;;;8.25;3.25;;;;;4.43;81.03;98758.59;4906170;28;102309;-71
2022/12/05 10:15:34;;;;;;;;;6.00;4.50;;;;;4.46;80.45;98753.75;4902410;28;108827;-71
2022/12/05 10:18:21;;;;;;;;;4.75;2.50;;;;;4.51;79.64;98745.25;4899798;28;102406;-71
2022/12/05 10:21:04;;;;;;;;;2.75;2.00;;;;;4.60;80.40;98752.31;4912250;28;102197;-70
2022/12/05 10:23:55;;;;;;;;;5.00;3.00;;;;;4.62;79.81;98746.81;4916235;28;102289;-71
2022/12/05 10:26:31;;;;;;;;;2.00;2.00;;;;;4.69;79.51;98759.41;4914746;28;109003;-71
2022/12/05 10:29:16;;;;;;;;;6.00;3.00;;;;;4.75;78.79;98764.13;4914439;28;102387;-71
2022/12/05 10:31:46;;;;;;;;;2.50;2.25;;;;;4.80;79.22;98766.34;4917435;28;102010;-72
2022/12/05 10:34:25;;;;;;;;;0.00;0.00;;;;;4.88;79.84;98758.31;4917179;28;103181;-72
2022/12/05 10:37:00;;;;;;;;;2.00;2.00;;;;;4.85;78.79;98753.31;4911334;28;108643;-71
2022/12/05 10:39:27;;;;;;;;;2.50;2.00;;;;;4.88;78.86;98747.59;4914243;28;103055;-71
2022/12/05 10:41:55;;;;;;;;;2.75;1.25;;;;;4.77;78.69;98721.94;4916493;28;102097;-71
2022/12/05 10:44:22;;;;;;;;;5.25;4.00;;;;;4.95;79.16;98743.28;4915602;28;102537;-72
2022/12/05 10:46:49;;;;;;;;;5.50;3.00;;;;;5.08;79.27;98741.00;4915610;28;103996;-70
2022/12/05 10:49:17;;;;;;;;;5.75;2.50;;;;;5.12;78.92;98736.97;4907287;28;102174;-72
2022/12/05 10:51:45;;;;;;;;;3.00;2.25;;;;;5.24;78.89;98751.75;4915612;28;102366;-71
2022/12/05 10:54:24;;;;;;;;;3.50;2.00;;;;;5.26;77.84;98736.34;4915665;28;102302;-71
2022/12/05 10:56:53;;;;;;;;;3.00;2.25;;;;;5.36;77.68;98742.38;4913745;28;108715;-71
2022/12/05 10:59:25;;;;;;;;;2.75;1.50;;;;;5.37;77.99;98738.72;4914885;28;102308;-71
2022/12/05 11:01:55;;;;;;;;;2.00;2.00;;;;;5.42;78.05;98737.38;4913591;28;103326;-71
2022/12/05 11:04:42;;;;;;;;;4.00;2.75;;;;;5.22;77.23;98710.03;4912135;28;103011;-72
2022/12/05 11:07:27;;;;;;;;;9.50;6.25;;;;;5.10;77.98;98730.94;4914125;28;103854;-71
2022/12/05 11:09:55;;;;;;;;;2.00;2.00;;;;;5.22;78.55;98734.97;4914899;28;102089;-70
2022/12/05 11:12:26;;;;;;;;;5.00;2.75;;;;;5.30;78.37;98726.13;4915865;28;102031;-71
2022/12/05 11:15:15;;;;;;;;;5.00;1.25;;;;;5.39;77.91;98720.63;4908409;28;102561;-71
2022/12/05 11:17:42;;;;;;;;;1.50;1.00;;;;;5.49;78.17;98720.47;4912280;28;104016;-71
2022/12/05 11:20:14;;;;;;;;;1.25;1.00;;;;;5.52;76.67;98712.09;4915419;28;102223;-71
2022/12/05 11:22:41;;;;;;;;;1.00;1.00;;;;;5.55;77.72;98708.22;4910506;28;101884;-70
2022/12/05 11:25:35;;;;;;;;;4.00;2.00;;;;;5.54;77.72;98706.56;4917669;28;102243;-70
2022/12/05 11:28:17;;;;;;;;;3.00;2.00;;;;;5.63;77.86;98710.94;4908034;28;108287;-72
2022/12/05 11:31:04;;;;;;;;;1.75;1.00;;;;;5.68;77.69;98714.75;4915387;28;101947;-71
2022/12/05 11:33:34;;;;;;;;;2.00;1.00;;;;;5.76;77.29;98713.94;4909542;28;101970;-70
2022/12/05 11:36:32;;;;;;;;;1.00;1.00;;;;;5.81;77.42;98708.88;4916707;28;102409;-71
2022/12/05 11:38:59;;;;;;;;;1.50;0.00;;;;;5.87;78.00;98713.63;4914157;28;108697;-71
2022/12/05 11:41:44;;;;;;;;;0.00;0.00;;;;;5.93;77.49;98707.59;4913399;28;102295;-71
2022/12/05 11:44:22;;;;;;;;;1.00;0.00;;;;;5.95;76.73;98707.41;4896693;28;101986;-70
2022/12/05 11:47:08;;;;;;;;;1.00;0.00;;;;;6.00;76.71;98702.38;4912608;28;101997;-70
2022/12/05 11:49:59;;;;;;;;;0.00;0.00;;;;;6.03;76.52;98702.06;4913368;28;103930;-71
2022/12/05 11:52:29;;;;;;;;;0.00;0.00;;;;;6.04;77.07;98709.06;4898639;28;102265;-71
2022/12/05 11:55:10;;;;;;;;;0.00;0.00;;;;;5.97;76.92;98703.56;4914785;28;103119;-71
2022/12/05 11:57:55;;;;;;;;;0.00;0.00;;;;;5.99;76.65;98711.47;4914519;28;102072;-71
2022/12/05 12:00:41;;;;;;;;;1.00;1.00;;;;;6.03;77.44;98707.41;4910721;28;108772;-71
2022/12/05 12:03:20;;;;;;;;;0.50;0.00;;;;;6.05;77.08;98714.28;4913992;28;102238;-71
2022/12/05 12:05:56;;;;;;;;;3.00;1.25;;;;;5.91;77.44;98712.28;4902477;28;102491;-71
2022/12/05 12:08:42;;;;;;;;;8.25;8.00;;;;;5.77;78.31;98720.97;4902276;28;102572;-71
2022/12/05 12:11:40;;;;;;;;;5.00;5.00;;;;;5.76;77.51;98722.81;4913824;28;103937;-71